createdAt,value
2019-02-06T00:02:06.206Z,3.60
2019-02-06T00:04:32.630Z,3.40
2019-02-06T00:06:59.134Z,3.50
2019-02-06T00:09:25.803Z,3.50
2019-02-06T00:11:52.172Z,3.50
2019-02-06T00:14:18.505Z,3.50
2019-02-06T00:16:44.952Z,3.50
2019-02-06T00:19:11.628Z,3.50
2019-02-06T00:21:38.277Z,3.40
2019-02-06T00:24:04.722Z,3.40
2019-02-06T00:26:31.333Z,3.50
2019-02-06T00:28:58.012Z,3.50
2019-02-06T00:31:24.339Z,3.50
2019-02-06T00:33:50.657Z,3.40
2019-02-06T00:36:18.261Z,3.50
2019-02-06T00:38:44.585Z,3.50
2019-02-06T00:41:10.958Z,3.40
2019-02-06T00:43:37.544Z,3.20
2019-02-06T00:46:04.509Z,3.30
2019-02-06T00:48:31.202Z,3.20
2019-02-06T00:50:57.827Z,3.10
2019-02-06T00:53:24.157Z,3.00
2019-02-06T00:55:50.487Z,3.10
2019-02-06T00:58:17.084Z,3.30
2019-02-06T01:00:43.709Z,3.30
2019-02-06T01:03:10.324Z,3.30
2019-02-06T01:05:38.683Z,3.40
2019-02-06T01:08:06.158Z,3.40
2019-02-06T01:10:33.494Z,3.40
2019-02-06T01:13:00.028Z,3.30
2019-02-06T01:15:26.611Z,3.30
2019-02-06T01:17:53.616Z,3.30
2019-02-06T01:20:19.953Z,3.20
2019-02-06T01:22:46.289Z,3.10
2019-02-06T01:25:15.518Z,3.00
2019-02-06T01:27:42.302Z,3.00
2019-02-06T01:30:21.619Z,2.90
2019-02-06T01:32:48.238Z,3.00
2019-02-06T01:35:15.327Z,3.10
2019-02-06T01:37:41.682Z,3.20
2019-02-06T01:40:12.447Z,3.30
2019-02-06T01:42:39.044Z,3.20
2019-02-06T01:45:12.484Z,3.00
2019-02-06T01:47:39.147Z,3.00
2019-02-06T01:50:10.238Z,2.80
2019-02-06T01:52:37.221Z,2.80
2019-02-06T01:55:07.632Z,2.80
2019-02-06T01:57:34.204Z,2.80
2019-02-06T02:00:00.798Z,2.90
2019-02-06T02:02:27.389Z,2.90
2019-02-06T02:04:53.984Z,3.00
2019-02-06T02:07:20.583Z,3.10
2019-02-06T02:09:47.312Z,3.00
2019-02-06T02:12:13.637Z,3.10
2019-02-06T02:14:39.975Z,3.20
2019-02-06T02:17:06.571Z,3.30
2019-02-06T02:19:32.879Z,3.30
2019-02-06T02:21:59.191Z,3.40
2019-02-06T02:24:25.505Z,3.30
2019-02-06T02:26:51.851Z,3.40
2019-02-06T02:29:18.458Z,3.50
2019-02-06T02:31:45.072Z,3.50
2019-02-06T02:34:11.408Z,3.40
2019-02-06T02:36:37.964Z,3.20
2019-02-06T02:39:05.604Z,3.20
2019-02-06T02:41:34.096Z,3.20
2019-02-06T02:44:00.442Z,3.10
2019-02-06T02:46:26.767Z,3.00
2019-02-06T02:48:53.682Z,3.20
2019-02-06T02:51:19.991Z,3.30
2019-02-06T02:53:46.399Z,3.20
2019-02-06T02:56:12.728Z,3.20
2019-02-06T02:58:39.071Z,3.30
2019-02-06T03:01:13.196Z,3.30
2019-02-06T03:03:41.509Z,3.30
2019-02-06T03:06:08.139Z,3.30
2019-02-06T03:08:34.738Z,3.30
2019-02-06T03:11:02.424Z,3.30
2019-02-06T03:13:28.745Z,3.30
2019-02-06T03:15:55.088Z,3.10
2019-02-06T03:18:21.449Z,3.10
2019-02-06T03:20:47.788Z,3.10
2019-02-06T03:23:14.374Z,3.10
2019-02-06T03:25:41.019Z,3.10
2019-02-06T03:28:07.376Z,3.10
2019-02-06T03:30:33.931Z,3.10
2019-02-06T03:33:00.281Z,3.10
2019-02-06T03:35:26.832Z,3.10
2019-02-06T03:37:53.456Z,3.00
2019-02-06T03:40:20.033Z,3.10
2019-02-06T03:42:46.372Z,3.00
2019-02-06T03:45:13.289Z,2.90
2019-02-06T03:47:39.863Z,2.80
2019-02-06T03:50:16.965Z,2.80
2019-02-06T03:52:43.751Z,2.70
2019-02-06T03:55:11.674Z,2.80
2019-02-06T03:57:38.205Z,2.80
2019-02-06T04:00:14.546Z,2.70
2019-02-06T04:02:40.872Z,2.60
2019-02-06T04:05:09.868Z,2.50
2019-02-06T04:07:36.246Z,2.50
2019-02-06T04:10:08.171Z,2.50
2019-02-06T04:12:34.649Z,2.40
2019-02-06T04:15:01.226Z,2.30
2019-02-06T04:17:27.906Z,2.30
2019-02-06T04:19:54.200Z,2.30
2019-02-06T04:22:20.550Z,2.20
2019-02-06T04:24:47.137Z,2.10
2019-02-06T04:27:14.528Z,2.00
2019-02-06T04:29:40.861Z,1.90
2019-02-06T04:32:07.270Z,1.80
2019-02-06T04:34:33.894Z,1.70
2019-02-06T04:37:06.601Z,1.70
2019-02-06T04:39:28.926Z,1.60
2019-02-06T04:41:55.474Z,1.60
2019-02-06T04:44:22.098Z,1.60
2019-02-06T04:46:49.448Z,1.60
2019-02-06T04:49:16.053Z,1.70
2019-02-06T04:51:42.403Z,1.70
2019-02-06T04:54:08.805Z,1.80
2019-02-06T04:56:35.633Z,1.90
2019-02-06T04:59:02.049Z,2.00
2019-02-06T05:01:28.419Z,2.00
2019-02-06T05:03:55.064Z,2.10
2019-02-06T05:06:22.118Z,2.20
2019-02-06T05:08:48.462Z,2.30
2019-02-06T05:11:14.794Z,2.30
2019-02-06T05:13:41.354Z,2.30
2019-02-06T05:16:07.695Z,2.30
2019-02-06T05:18:34.051Z,2.40
2019-02-06T05:21:00.637Z,2.40
2019-02-06T05:23:27.325Z,2.40
2019-02-06T05:25:57.902Z,2.50
2019-02-06T05:28:24.356Z,2.40
2019-02-06T05:30:52.064Z,2.50
2019-02-06T05:33:18.440Z,2.60
2019-02-06T05:35:45.072Z,2.70
2019-02-06T05:38:11.435Z,2.70
2019-02-06T05:40:37.812Z,2.70
2019-02-06T05:43:04.265Z,2.50
2019-02-06T05:45:30.699Z,2.50
2019-02-06T05:47:57.276Z,2.50
2019-02-06T05:50:23.700Z,2.60
2019-02-06T05:52:50.051Z,2.60
2019-02-06T05:55:16.702Z,2.50
2019-02-06T05:57:43.806Z,2.50
2019-02-06T06:00:15.754Z,2.40
2019-02-06T06:02:42.083Z,2.40
2019-02-06T06:05:08.526Z,2.40
2019-02-06T06:07:44.592Z,2.40
2019-02-06T06:10:09.150Z,2.30
2019-02-06T06:12:35.691Z,2.30
2019-02-06T06:15:05.016Z,2.10
2019-02-06T06:17:31.356Z,2.10
2019-02-06T06:19:57.724Z,2.10
2019-02-06T06:22:24.046Z,2.10
2019-02-06T06:24:50.657Z,2.20
2019-02-06T06:27:17.267Z,2.30
2019-02-06T06:29:43.877Z,2.30
2019-02-06T06:32:10.238Z,2.40
2019-02-06T06:34:37.236Z,2.50
2019-02-06T06:37:03.607Z,2.40
2019-02-06T06:39:30.356Z,2.40
2019-02-06T06:41:56.722Z,2.50
2019-02-06T06:44:23.343Z,2.50
2019-02-06T06:46:49.714Z,2.50
2019-02-06T06:49:16.058Z,2.50
2019-02-06T06:51:42.359Z,2.40
2019-02-06T06:54:08.955Z,2.40
2019-02-06T06:56:35.257Z,2.50
2019-02-06T06:59:01.569Z,2.50
2019-02-06T07:01:27.927Z,2.40
2019-02-06T07:03:54.532Z,2.40
2019-02-06T07:06:21.140Z,2.40
2019-02-06T07:08:47.724Z,2.30
2019-02-06T07:11:14.371Z,2.30
2019-02-06T07:13:41.041Z,2.20
2019-02-06T07:16:07.552Z,2.10
2019-02-06T07:18:34.194Z,2.10
2019-02-06T07:21:01.599Z,2.00
2019-02-06T07:23:28.294Z,1.90
2019-02-06T07:25:54.625Z,1.70
2019-02-06T07:28:20.944Z,1.60
2019-02-06T07:30:47.245Z,1.50
2019-02-06T07:33:13.619Z,1.50
2019-02-06T07:35:40.534Z,1.60
2019-02-06T07:38:08.377Z,1.80
2019-02-06T07:40:34.733Z,1.80
2019-02-06T07:43:01.085Z,1.90
2019-02-06T07:45:27.747Z,2.10
2019-02-06T07:47:54.232Z,2.10
2019-02-06T07:50:24.822Z,2.10
2019-02-06T07:52:51.756Z,2.00
2019-02-06T07:55:18.109Z,2.00
2019-02-06T07:57:45.257Z,2.00
2019-02-06T08:00:18.253Z,2.10
2019-02-06T08:02:44.742Z,2.30
2019-02-06T08:05:18.050Z,2.40
2019-02-06T08:07:45.044Z,2.40
2019-02-06T08:10:19.833Z,2.40
2019-02-06T08:12:46.394Z,2.40
2019-02-06T08:15:16.191Z,2.40
2019-02-06T08:17:42.991Z,2.50
2019-02-06T08:20:19.515Z,2.60
2019-02-06T08:22:46.073Z,2.70
2019-02-06T08:25:15.890Z,3.00
2019-02-06T08:27:42.332Z,3.20
2019-02-06T08:30:24.733Z,3.30
2019-02-06T08:32:51.267Z,3.10
2019-02-06T08:35:17.702Z,3.30
2019-02-06T08:37:44.345Z,3.50
2019-02-06T08:40:15.832Z,3.40
2019-02-06T08:42:42.437Z,3.40
2019-02-06T08:45:15.311Z,3.30
2019-02-06T08:47:41.721Z,3.20
2019-02-06T08:50:12.828Z,3.40
2019-02-06T08:52:39.840Z,3.30
2019-02-06T08:55:11.420Z,3.30
2019-02-06T08:57:38.020Z,3.30
2019-02-06T09:00:10.248Z,3.40
2019-02-06T09:02:36.573Z,3.50
2019-02-06T09:05:07.621Z,3.50
2019-02-06T09:07:34.398Z,3.40
2019-02-06T09:10:03.770Z,3.60
2019-02-06T09:12:30.324Z,3.70
2019-02-06T09:14:56.662Z,3.70
2019-02-06T09:17:23.076Z,3.60
2019-02-06T09:19:49.712Z,3.90
2019-02-06T09:22:18.297Z,3.80
2019-02-06T09:24:44.912Z,3.60
2019-02-06T09:27:11.308Z,3.70
2019-02-06T09:29:38.001Z,3.90
2019-02-06T09:32:04.344Z,3.90
2019-02-06T09:34:30.987Z,3.90
2019-02-06T09:36:57.305Z,3.70
2019-02-06T09:39:23.675Z,4.00
2019-02-06T09:41:49.987Z,4.00
2019-02-06T09:44:16.574Z,3.70
2019-02-06T09:46:42.946Z,3.80
2019-02-06T09:49:09.963Z,3.90
2019-02-06T09:51:36.309Z,4.20
2019-02-06T09:54:02.748Z,4.10
2019-02-06T09:56:29.069Z,4.10
2019-02-06T09:58:55.659Z,4.10
2019-02-06T10:01:22.284Z,4.10
2019-02-06T10:03:48.608Z,4.10
2019-02-06T10:06:15.195Z,4.30
2019-02-06T10:08:41.496Z,4.10
2019-02-06T10:11:08.306Z,4.10
2019-02-06T10:13:34.888Z,4.20
2019-02-06T10:16:02.299Z,4.40
2019-02-06T10:18:28.612Z,4.00
2019-02-06T10:20:55.265Z,4.10
2019-02-06T10:23:21.851Z,4.50
2019-02-06T10:25:48.237Z,4.60
2019-02-06T10:28:16.250Z,4.80
2019-02-06T10:30:45.917Z,4.90
2019-02-06T10:33:12.291Z,5.00
2019-02-06T10:35:38.801Z,5.00
2019-02-06T10:38:05.763Z,4.80
2019-02-06T10:40:32.352Z,4.90
2019-02-06T10:42:59.029Z,5.00
2019-02-06T10:45:26.080Z,5.00
2019-02-06T10:47:52.884Z,4.70
2019-02-06T10:50:27.025Z,4.80
2019-02-06T10:52:54.611Z,4.60
2019-02-06T10:55:21.365Z,4.80
2019-02-06T10:57:48.107Z,5.00
2019-02-06T11:00:26.060Z,4.90
2019-02-06T11:02:52.993Z,4.80
2019-02-06T11:05:19.837Z,4.90
2019-02-06T11:07:46.403Z,4.70
2019-02-06T11:10:21.959Z,4.70
2019-02-06T11:12:48.662Z,5.00
2019-02-06T11:15:15.532Z,5.20
2019-02-06T11:17:42.262Z,5.40
2019-02-06T11:20:19.639Z,5.40
2019-02-06T11:22:46.475Z,5.50
2019-02-06T11:25:14.827Z,5.70
2019-02-06T11:27:41.404Z,6.20
2019-02-06T11:30:18.431Z,6.80
2019-02-06T11:32:45.396Z,7.60
2019-02-06T11:35:13.128Z,7.80
2019-02-06T11:37:39.548Z,8.60
2019-02-06T11:40:15.202Z,10.00
2019-02-06T11:42:41.376Z,11.00
2019-02-06T11:45:12.445Z,11.40
2019-02-06T11:47:39.013Z,12.00
2019-02-06T11:50:11.472Z,12.90
2019-02-06T11:52:37.798Z,11.80
2019-02-06T11:55:12.165Z,11.70
2019-02-06T11:57:38.489Z,12.80
2019-02-06T12:00:10.433Z,14.20
2019-02-06T12:02:37.636Z,14.40
2019-02-06T12:05:06.711Z,14.60
2019-02-06T12:07:33.444Z,15.10
2019-02-06T12:10:09.406Z,14.90
2019-02-06T12:12:28.243Z,13.60
2019-02-06T12:14:54.858Z,14.50
2019-02-06T12:17:21.212Z,14.90
2019-02-06T12:19:47.803Z,15.20
2019-02-06T12:22:14.851Z,14.50
2019-02-06T12:24:41.164Z,15.30
2019-02-06T12:27:07.922Z,15.50
2019-02-06T12:29:34.267Z,14.70
2019-02-06T12:32:01.058Z,14.60
2019-02-06T12:34:27.421Z,14.50
2019-02-06T12:36:54.002Z,14.90
2019-02-06T12:39:22.707Z,14.80
2019-02-06T12:41:48.605Z,14.90
2019-02-06T12:44:15.658Z,15.50
2019-02-06T12:46:42.388Z,16.20
2019-02-06T12:49:09.972Z,15.70
2019-02-06T12:51:36.568Z,15.80
2019-02-06T12:54:03.339Z,16.30
2019-02-06T12:56:29.850Z,16.90
2019-02-06T12:58:56.158Z,16.40
2019-02-06T13:01:23.482Z,16.20
2019-02-06T13:03:50.055Z,15.90
2019-02-06T13:06:16.696Z,16.00
2019-02-06T13:08:48.828Z,15.20
2019-02-06T13:11:15.850Z,14.50
2019-02-06T13:14:01.097Z,15.20
2019-02-06T13:16:32.016Z,16.60
2019-02-06T13:19:03.081Z,16.60
2019-02-06T13:21:29.818Z,15.30
2019-02-06T13:23:56.184Z,17.30
2019-02-06T13:26:22.541Z,18.20
2019-02-06T13:28:49.869Z,18.00
2019-02-06T13:31:16.303Z,16.90
2019-02-06T13:33:42.904Z,16.20
2019-02-06T13:36:12.409Z,15.50
2019-02-06T13:38:39.494Z,13.70
2019-02-06T13:41:06.067Z,14.00
2019-02-06T13:43:32.475Z,15.70
2019-02-06T13:45:58.893Z,16.50
2019-02-06T13:48:25.724Z,16.90
2019-02-06T13:50:52.198Z,17.90
2019-02-06T13:53:19.040Z,17.00
2019-02-06T13:55:45.744Z,17.20
2019-02-06T13:58:20.451Z,15.90
2019-02-06T14:00:44.252Z,16.60
2019-02-06T14:03:13.669Z,15.30
2019-02-06T14:05:41.449Z,15.60
2019-02-06T14:08:13.719Z,14.10
2019-02-06T14:10:40.128Z,15.40
2019-02-06T14:13:07.140Z,16.10
2019-02-06T14:15:38.684Z,15.50
2019-02-06T14:18:05.353Z,16.90
2019-02-06T14:20:34.377Z,15.80
2019-02-06T14:23:09.704Z,15.00
2019-02-06T14:25:41.359Z,15.70
2019-02-06T14:28:44.524Z,17.10
2019-02-06T14:31:17.518Z,16.60
2019-02-06T14:34:13.411Z,16.10
2019-02-06T14:36:54.280Z,15.60
2019-02-06T14:39:26.334Z,14.80
2019-02-06T14:42:09.901Z,13.80
2019-02-06T14:45:21.540Z,12.40
2019-02-06T14:48:05.248Z,11.70
2019-02-06T14:50:37.854Z,12.90
2019-02-06T14:53:18.492Z,11.50
2019-02-06T14:55:53.688Z,10.40
2019-02-06T14:58:58.725Z,9.60
2019-02-06T15:01:54.524Z,8.60
2019-02-06T15:05:02.931Z,7.70
2019-02-06T15:07:42.208Z,7.20
2019-02-06T15:10:29.960Z,6.70
2019-02-06T15:13:07.886Z,6.50
2019-02-06T15:16:11.369Z,6.30
2019-02-06T15:18:46.130Z,5.90
2019-02-06T15:21:39.235Z,5.40
2019-02-06T15:24:29.760Z,5.20
2019-02-06T15:27:48.985Z,5.10
2019-02-06T15:30:34.152Z,4.70
2019-02-06T15:33:11.951Z,4.40
2019-02-06T15:35:57.913Z,4.40
2019-02-06T15:38:53.944Z,4.20
2019-02-06T15:41:54.018Z,4.00
2019-02-06T15:44:31.746Z,3.90
2019-02-06T15:47:33.376Z,3.60
2019-02-06T15:50:26.853Z,3.40
2019-02-06T15:53:04.265Z,3.30
2019-02-06T15:55:55.738Z,3.10
2019-02-06T15:58:33.378Z,2.90
2019-02-06T16:01:29.036Z,2.90
2019-02-06T16:04:21.126Z,2.90
2019-02-06T16:07:11.415Z,2.80
2019-02-06T16:09:49.210Z,2.70
2019-02-06T16:12:43.223Z,2.70
2019-02-06T16:15:20.967Z,2.50
2019-02-06T16:18:02.633Z,2.50
2019-02-06T16:20:49.709Z,2.40
2019-02-06T16:23:42.567Z,2.20
2019-02-06T16:26:56.758Z,2.10
2019-02-06T16:29:37.947Z,2.10
2019-02-06T16:32:27.999Z,2.00
2019-02-06T16:35:20.508Z,1.90
2019-02-06T16:38:31.483Z,1.90
2019-02-06T16:41:17.867Z,1.80
2019-02-06T16:43:52.895Z,1.80
2019-02-06T16:46:42.392Z,1.70
2019-02-06T16:49:26.426Z,1.60
2019-02-06T16:52:33.185Z,1.70
2019-02-06T16:55:21.993Z,1.60
2019-02-06T16:58:00.043Z,1.50
2019-02-06T17:01:17.333Z,1.50
2019-02-06T17:03:51.965Z,1.40
2019-02-06T17:06:52.433Z,1.40
2019-02-06T17:09:49.395Z,1.30
2019-02-06T17:12:22.244Z,1.30
2019-02-06T17:15:16.838Z,1.30
2019-02-06T17:18:01.060Z,1.30
2019-02-06T17:20:53.924Z,1.20
2019-02-06T17:23:47.520Z,1.10
2019-02-06T17:26:43.728Z,1.00
2019-02-06T17:29:24.731Z,1.00
2019-02-06T17:32:45.333Z,0.90
2019-02-06T17:35:23.557Z,0.90
2019-02-06T17:38:12.352Z,0.90
2019-02-06T17:41:03.984Z,1.00
2019-02-06T17:43:39.129Z,0.90
2019-02-06T17:46:23.297Z,0.90
2019-02-06T17:49:34.768Z,1.00
2019-02-06T17:52:32.008Z,0.90
2019-02-06T17:55:20.235Z,0.90
2019-02-06T17:57:48.968Z,0.90
2019-02-06T18:00:40.516Z,0.90
2019-02-06T18:03:12.894Z,0.80
2019-02-06T18:05:40.301Z,0.80
2019-02-06T18:08:08.065Z,0.70
2019-02-06T18:10:34.951Z,0.70
2019-02-06T18:13:02.291Z,0.80
2019-02-06T18:15:29.420Z,0.70
2019-02-06T18:17:58.195Z,0.80
2019-02-06T18:20:24.878Z,0.60
2019-02-06T18:22:53.378Z,0.70
2019-02-06T18:25:21.050Z,0.70
2019-02-06T18:27:47.495Z,0.70
2019-02-06T18:30:23.098Z,0.60
2019-02-06T18:32:49.809Z,0.60
2019-02-06T18:35:16.486Z,0.60
2019-02-06T18:37:50.118Z,0.50
2019-02-06T18:40:17.344Z,0.60
2019-02-06T18:42:47.503Z,0.50
2019-02-06T18:45:19.586Z,0.50
2019-02-06T18:47:46.385Z,0.50
2019-02-06T18:50:24.635Z,0.40
2019-02-06T18:52:51.189Z,0.30
2019-02-06T18:55:17.751Z,0.30
2019-02-06T18:57:44.481Z,0.40
2019-02-06T19:00:27.213Z,0.30
2019-02-06T19:02:53.958Z,0.20
2019-02-06T19:05:31.712Z,0.30
2019-02-06T19:08:00.449Z,0.30
2019-02-06T19:10:28.101Z,0.20
2019-02-06T19:12:54.765Z,0.30
2019-02-06T19:15:21.387Z,0.30
2019-02-06T19:17:48.245Z,0.40
2019-02-06T19:20:17.859Z,0.30
2019-02-06T19:22:45.626Z,0.30
2019-02-06T19:25:15.302Z,0.20
2019-02-06T19:27:43.325Z,0.30
2019-02-06T19:30:20.853Z,0.10
2019-02-06T19:32:47.503Z,0.20
2019-02-06T19:35:14.284Z,0.10
2019-02-06T19:37:40.677Z,0.10
2019-02-06T19:40:14.961Z,0.10
2019-02-06T19:42:41.670Z,0.00
2019-02-06T19:45:15.445Z,0.00
2019-02-06T19:47:41.976Z,-0.10
2019-02-06T19:50:17.814Z,-0.10
2019-02-06T19:52:44.540Z,-0.10
2019-02-06T19:55:14.140Z,-0.10
2019-02-06T19:57:40.744Z,0.00
2019-02-06T20:00:18.620Z,-0.10
2019-02-06T20:02:45.893Z,-0.10
2019-02-06T20:05:17.251Z,-0.20
2019-02-06T20:07:47.904Z,-0.10
2019-02-06T20:10:22.631Z,-0.10
2019-02-06T20:12:52.529Z,-0.10
2019-02-06T20:15:19.319Z,-0.10
2019-02-06T20:17:46.236Z,-0.10
2019-02-06T20:20:21.454Z,-0.10
2019-02-06T20:22:49.950Z,-0.10
2019-02-06T20:25:16.755Z,-0.10
2019-02-06T20:27:43.394Z,-0.20
2019-02-06T20:30:18.164Z,-0.20
2019-02-06T20:32:44.808Z,-0.20
2019-02-06T20:35:14.115Z,-0.20
2019-02-06T20:37:40.752Z,-0.30
2019-02-06T20:40:12.382Z,-0.20
2019-02-06T20:42:38.712Z,-0.20
2019-02-06T20:45:07.920Z,-0.20
2019-02-06T20:47:34.738Z,-0.20
2019-02-06T20:50:01.889Z,-0.20
2019-02-06T20:52:28.691Z,-0.20
2019-02-06T20:54:56.772Z,-0.30
2019-02-06T20:57:25.364Z,-0.30
2019-02-06T20:59:51.701Z,-0.30
2019-02-06T21:02:18.350Z,-0.30
2019-02-06T21:04:47.035Z,-0.30
2019-02-06T21:07:13.070Z,-0.40
2019-02-06T21:09:39.422Z,-0.40
2019-02-06T21:12:07.236Z,-0.50
2019-02-06T21:14:33.593Z,-0.50
2019-02-06T21:17:00.217Z,-0.50
2019-02-06T21:19:28.258Z,-0.60
2019-02-06T21:21:54.910Z,-0.50
2019-02-06T21:24:22.058Z,-0.60
2019-02-06T21:26:49.972Z,-0.60
2019-02-06T21:29:16.481Z,-0.70
2019-02-06T21:31:42.860Z,-0.70
2019-02-06T21:34:09.168Z,-0.70
2019-02-06T21:36:37.177Z,-0.70
2019-02-06T21:39:06.567Z,-0.60
2019-02-06T21:41:34.533Z,-0.60
2019-02-06T21:44:01.966Z,-0.60
2019-02-06T21:46:28.598Z,-0.70
2019-02-06T21:48:55.207Z,-0.80
2019-02-06T21:51:21.853Z,-0.70
2019-02-06T21:53:48.615Z,-0.70
2019-02-06T21:56:15.268Z,-0.70
2019-02-06T21:58:42.036Z,-0.70
2019-02-06T22:01:08.536Z,-0.70
2019-02-06T22:03:35.303Z,-0.80
2019-02-06T22:06:02.010Z,-0.80
2019-02-06T22:08:28.461Z,-0.80
2019-02-06T22:10:54.787Z,-0.70
2019-02-06T22:13:21.093Z,-0.60
2019-02-06T22:15:47.855Z,-0.60
2019-02-06T22:18:14.415Z,-0.70
2019-02-06T22:20:40.732Z,-0.70
2019-02-06T22:23:07.069Z,-0.60
2019-02-06T22:25:33.420Z,-0.60
2019-02-06T22:27:59.730Z,-0.60
2019-02-06T22:30:28.376Z,-0.70
2019-02-06T22:32:54.953Z,-0.80
2019-02-06T22:35:21.762Z,-0.90
2019-02-06T22:37:48.163Z,-0.90
2019-02-06T22:40:18.366Z,-0.90
2019-02-06T22:42:44.874Z,-0.90
2019-02-06T22:45:24.127Z,-1.00
2019-02-06T22:47:50.460Z,-0.90
2019-02-06T22:50:23.608Z,-0.90
2019-02-06T22:52:50.172Z,-1.00
2019-02-06T22:55:16.695Z,-1.00
2019-02-06T22:57:43.247Z,-1.00
2019-02-06T23:00:49.251Z,-0.90
2019-02-06T23:03:21.547Z,-0.90
2019-02-06T23:05:47.886Z,-1.00
2019-02-06T23:08:14.965Z,-1.00
2019-02-06T23:10:41.335Z,-0.90
2019-02-06T23:13:07.869Z,-0.90
2019-02-06T23:15:35.590Z,-0.90
2019-02-06T23:18:02.866Z,-0.90
2019-02-06T23:20:30.609Z,-1.00
2019-02-06T23:22:58.183Z,-0.90
2019-02-06T23:25:24.812Z,-1.00
2019-02-06T23:27:51.432Z,-0.90
2019-02-06T23:30:17.725Z,-0.90
2019-02-06T23:32:45.435Z,-0.90
2019-02-06T23:35:11.839Z,-0.90
2019-02-06T23:37:38.174Z,-1.00
2019-02-06T23:40:12.780Z,-0.90
2019-02-06T23:42:39.149Z,-1.00
2019-02-06T23:45:08.797Z,-0.90
2019-02-06T23:47:36.569Z,-0.90
2019-02-06T23:50:08.539Z,-0.90
2019-02-06T23:52:34.897Z,-0.90
2019-02-06T23:55:01.290Z,-0.80
2019-02-06T23:57:27.599Z,-0.90
2019-02-06T23:59:53.940Z,-0.90
